createdAt,value
2023-02-11T00:01:11.452Z,1.04
2023-02-11T00:03:39.028Z,1.07
2023-02-11T00:06:09.578Z,1.06
2023-02-11T00:08:37.412Z,0.98
2023-02-11T00:11:05.003Z,1.09
2023-02-11T00:13:32.829Z,1.10
2023-02-11T00:15:59.953Z,1.05
2023-02-11T00:18:28.446Z,1.01
2023-02-11T00:20:55.609Z,1.04
2023-02-11T00:23:23.130Z,1.05
2023-02-11T00:25:50.543Z,0.97
2023-02-11T00:28:18.296Z,1.02
2023-02-11T00:30:45.676Z,1.01
2023-02-11T00:33:13.237Z,1.07
2023-02-11T00:35:40.359Z,1.07
2023-02-11T00:38:08.904Z,1.11
2023-02-11T00:40:36.424Z,1.14
2023-02-11T00:43:04.516Z,1.08
2023-02-11T00:45:31.852Z,1.09
2023-02-11T00:47:59.472Z,1.00
2023-02-11T00:50:28.792Z,1.09
2023-02-11T00:52:56.697Z,1.05
2023-02-11T00:55:23.916Z,0.99
2023-02-11T00:57:51.950Z,1.10
2023-02-11T01:00:19.230Z,1.10
2023-02-11T01:02:46.938Z,1.15
2023-02-11T01:05:14.345Z,1.06
2023-02-11T01:07:42.106Z,1.16
2023-02-11T01:10:09.459Z,1.13
2023-02-11T01:12:37.508Z,1.15
2023-02-11T01:15:05.932Z,1.13
2023-02-11T01:17:34.297Z,1.09
2023-02-11T01:20:06.945Z,1.08
2023-02-11T01:22:37.580Z,1.06
2023-02-11T01:25:05.062Z,1.05
2023-02-11T01:27:32.833Z,1.09
2023-02-11T01:30:00.187Z,1.07
2023-02-11T01:32:27.713Z,1.09
2023-02-11T01:34:55.137Z,1.03
2023-02-11T01:37:22.557Z,1.03
2023-02-11T01:39:50.076Z,1.09
2023-02-11T01:42:20.937Z,1.06
2023-02-11T01:44:52.780Z,1.14
2023-02-11T01:47:21.381Z,1.12
2023-02-11T01:49:52.738Z,1.13
2023-02-11T01:52:31.952Z,1.09
2023-02-11T01:55:21.118Z,1.11
2023-02-11T01:57:52.599Z,1.09
2023-02-11T02:00:22.950Z,1.12
2023-02-11T02:02:56.793Z,1.15
2023-02-11T02:05:31.476Z,1.14
2023-02-11T02:08:10.570Z,1.22
2023-02-11T02:10:41.439Z,1.14
2023-02-11T02:13:09.483Z,1.13
2023-02-11T02:15:38.067Z,1.16
2023-02-11T02:18:28.524Z,1.10
2023-02-11T02:21:33.616Z,1.09
2023-02-11T02:24:04.350Z,1.06
2023-02-11T02:27:13.897Z,1.02
2023-02-11T02:29:56.899Z,1.04
2023-02-11T02:32:42.940Z,1.00
2023-02-11T02:35:31.984Z,0.95
2023-02-11T02:38:12.751Z,0.98
2023-02-11T02:40:48.053Z,0.96
2023-02-11T02:43:15.807Z,0.96
2023-02-11T02:45:43.334Z,0.97
2023-02-11T02:48:28.149Z,0.92
2023-02-11T02:51:33.555Z,0.94
2023-02-11T02:54:38.176Z,1.00
2023-02-11T02:57:24.720Z,0.98
2023-02-11T02:59:58.043Z,1.01
2023-02-11T03:02:56.405Z,1.00
2023-02-11T03:06:09.314Z,1.06
2023-02-11T03:08:57.756Z,1.04
2023-02-11T03:11:26.325Z,1.09
2023-02-11T03:13:55.281Z,1.03
2023-02-11T03:16:26.946Z,1.06
2023-02-11T03:19:02.628Z,1.02
2023-02-11T03:21:31.623Z,1.02
2023-02-11T03:24:04.033Z,1.06
2023-02-11T03:26:38.577Z,1.04
2023-02-11T03:29:25.201Z,1.07
2023-02-11T03:32:30.725Z,1.07
2023-02-11T03:35:08.244Z,1.00
2023-02-11T03:37:40.340Z,1.07
2023-02-11T03:40:12.077Z,1.00
2023-02-11T03:42:44.331Z,1.02
2023-02-11T03:45:15.910Z,1.01
2023-02-11T03:47:47.140Z,1.04
2023-02-11T03:50:15.810Z,1.03
2023-02-11T03:52:43.191Z,1.00
2023-02-11T03:55:14.005Z,1.05
2023-02-11T03:57:41.451Z,1.04
2023-02-11T04:00:12.166Z,1.00
2023-02-11T04:02:40.246Z,1.00
2023-02-11T04:05:14.162Z,0.93
2023-02-11T04:07:41.575Z,0.98
2023-02-11T04:10:09.438Z,0.96
2023-02-11T04:12:36.607Z,0.97
2023-02-11T04:15:04.925Z,0.98
2023-02-11T04:17:32.200Z,0.96
2023-02-11T04:19:59.805Z,0.95
2023-02-11T04:22:27.322Z,0.97
2023-02-11T04:24:54.720Z,0.85
2023-02-11T04:27:21.934Z,0.90
2023-02-11T04:29:49.724Z,0.92
2023-02-11T04:32:16.938Z,0.83
2023-02-11T04:34:44.606Z,0.86
2023-02-11T04:37:11.941Z,0.84
2023-02-11T04:39:39.411Z,0.86
2023-02-11T04:42:06.922Z,0.80
2023-02-11T04:44:34.726Z,0.80
2023-02-11T04:47:02.104Z,0.74
2023-02-11T04:49:29.786Z,0.79
2023-02-11T04:51:57.137Z,0.76
2023-02-11T04:54:24.615Z,0.76
2023-02-11T04:56:51.837Z,0.75
2023-02-11T04:59:19.785Z,0.81
2023-02-11T05:01:47.241Z,0.78
2023-02-11T05:04:14.850Z,0.79
2023-02-11T05:06:42.176Z,0.79
2023-02-11T05:09:11.764Z,0.74
2023-02-11T05:11:39.638Z,0.76
2023-02-11T05:14:07.427Z,0.83
2023-02-11T05:16:34.941Z,0.86
2023-02-11T05:19:02.695Z,0.86
2023-02-11T05:21:30.096Z,0.82
2023-02-11T05:23:58.033Z,0.86
2023-02-11T05:26:25.703Z,0.90
2023-02-11T05:28:53.316Z,0.83
2023-02-11T05:31:20.675Z,0.95
2023-02-11T05:33:48.334Z,0.98
2023-02-11T05:36:16.970Z,0.97
2023-02-11T05:38:44.487Z,1.01
2023-02-11T05:41:12.100Z,1.01
2023-02-11T05:43:39.969Z,1.00
2023-02-11T05:46:07.298Z,1.06
2023-02-11T05:48:35.341Z,1.04
2023-02-11T05:51:02.761Z,1.00
2023-02-11T05:53:30.727Z,1.07
2023-02-11T05:55:58.125Z,1.12
2023-02-11T05:58:25.913Z,1.05
2023-02-11T06:00:53.189Z,1.01
2023-02-11T06:03:21.234Z,1.01
2023-02-11T06:05:48.703Z,1.03
2023-02-11T06:08:16.535Z,1.02
2023-02-11T06:10:45.832Z,1.00
2023-02-11T06:13:13.657Z,1.04
2023-02-11T06:15:40.746Z,1.05
2023-02-11T06:18:08.846Z,1.08
2023-02-11T06:20:36.197Z,1.05
2023-02-11T06:23:03.732Z,1.08
2023-02-11T06:25:30.929Z,1.12
2023-02-11T06:27:58.416Z,1.14
2023-02-11T06:30:25.644Z,1.23
2023-02-11T06:32:53.459Z,1.20
2023-02-11T06:35:20.664Z,1.21
2023-02-11T06:37:49.830Z,1.19
2023-02-11T06:40:17.055Z,1.22
2023-02-11T06:42:44.822Z,1.23
2023-02-11T06:45:13.445Z,1.30
2023-02-11T06:47:42.183Z,1.29
2023-02-11T06:50:13.303Z,1.33
2023-02-11T06:52:41.795Z,1.46
2023-02-11T06:55:09.314Z,1.45
2023-02-11T06:57:36.925Z,1.41
2023-02-11T07:00:05.695Z,1.43
2023-02-11T07:02:33.504Z,1.36
2023-02-11T07:05:00.816Z,1.42
2023-02-11T07:07:28.665Z,1.41
2023-02-11T07:09:56.113Z,1.46
2023-02-11T07:12:24.011Z,1.36
2023-02-11T07:14:51.454Z,1.37
2023-02-11T07:17:19.149Z,1.33
2023-02-11T07:19:46.438Z,1.37
2023-02-11T07:22:14.125Z,1.33
2023-02-11T07:24:41.800Z,1.25
2023-02-11T07:27:09.576Z,1.32
2023-02-11T07:29:36.890Z,1.32
2023-02-11T07:32:04.661Z,1.21
2023-02-11T07:34:32.025Z,1.13
2023-02-11T07:36:59.747Z,1.16
2023-02-11T07:39:27.676Z,1.09
2023-02-11T07:41:55.558Z,1.14
2023-02-11T07:44:23.584Z,1.15
2023-02-11T07:46:51.255Z,1.04
2023-02-11T07:49:18.519Z,1.04
2023-02-11T07:51:47.366Z,1.02
2023-02-11T07:54:14.603Z,1.10
2023-02-11T07:56:42.255Z,1.13
2023-02-11T07:59:11.150Z,1.17
2023-02-11T08:01:39.044Z,1.18
2023-02-11T08:04:06.245Z,1.20
2023-02-11T08:06:35.480Z,1.12
2023-02-11T08:09:07.971Z,1.15
2023-02-11T08:11:35.821Z,1.11
2023-02-11T08:14:03.118Z,1.07
2023-02-11T08:16:33.486Z,1.09
2023-02-11T08:19:04.034Z,1.07
2023-02-11T08:21:31.911Z,1.10
2023-02-11T08:23:59.222Z,1.11
2023-02-11T08:26:29.178Z,1.17
2023-02-11T08:28:57.450Z,1.12
2023-02-11T08:31:28.132Z,1.16
2023-02-11T08:33:58.291Z,1.17
2023-02-11T08:36:29.418Z,1.16
2023-02-11T08:39:16.034Z,1.14
2023-02-11T08:41:47.179Z,1.11
2023-02-11T08:44:14.496Z,1.12
2023-02-11T08:46:41.884Z,1.12
2023-02-11T08:49:09.299Z,1.18
2023-02-11T08:51:37.039Z,1.20
2023-02-11T08:54:04.589Z,1.10
2023-02-11T08:56:33.371Z,1.20
2023-02-11T08:59:00.591Z,1.15
2023-02-11T09:01:30.412Z,1.27
2023-02-11T09:03:59.083Z,1.38
2023-02-11T09:06:27.913Z,1.37
2023-02-11T09:08:56.649Z,1.36
2023-02-11T09:11:36.792Z,1.43
2023-02-11T09:14:05.052Z,1.40
2023-02-11T09:16:36.567Z,1.41
2023-02-11T09:19:06.383Z,1.41
2023-02-11T09:21:35.062Z,1.38
2023-02-11T09:24:02.866Z,1.29
2023-02-11T09:26:32.553Z,1.31
2023-02-11T09:29:00.515Z,1.28
2023-02-11T09:31:30.695Z,1.31
2023-02-11T09:34:00.612Z,1.31
2023-02-11T09:36:34.440Z,1.33
2023-02-11T09:39:02.705Z,1.36
2023-02-11T09:41:37.798Z,1.27
2023-02-11T09:44:09.952Z,1.20
2023-02-11T09:46:41.588Z,1.17
2023-02-11T09:49:19.077Z,1.21
2023-02-11T09:51:53.898Z,1.18
2023-02-11T09:54:30.419Z,1.17
2023-02-11T09:56:58.238Z,1.18
2023-02-11T09:59:25.505Z,1.06
2023-02-11T10:02:01.035Z,1.23
2023-02-11T10:04:47.156Z,1.23
2023-02-11T10:07:56.598Z,1.21
2023-02-11T10:10:23.958Z,1.23
2023-02-11T10:12:56.698Z,1.23
2023-02-11T10:15:27.437Z,1.23
2023-02-11T10:18:16.977Z,1.21
2023-02-11T10:21:26.397Z,1.18
2023-02-11T10:23:56.865Z,1.24
2023-02-11T10:26:24.336Z,1.25
2023-02-11T10:28:54.725Z,1.29
2023-02-11T10:31:26.678Z,1.29
2023-02-11T10:34:04.723Z,1.27
2023-02-11T10:36:37.377Z,1.28
2023-02-11T10:39:24.509Z,1.24
2023-02-11T10:41:55.968Z,1.32
2023-02-11T10:44:43.748Z,1.36
2023-02-11T10:47:22.929Z,1.36
2023-02-11T10:49:50.607Z,1.35
2023-02-11T10:52:17.981Z,1.38
2023-02-11T10:55:04.239Z,1.40
2023-02-11T10:57:35.550Z,1.40
2023-02-11T11:00:09.079Z,1.39
2023-02-11T11:02:39.011Z,1.37
2023-02-11T11:05:16.552Z,1.39
2023-02-11T11:07:54.810Z,1.33
2023-02-11T11:10:47.150Z,1.46
2023-02-11T11:13:32.430Z,1.45
2023-02-11T11:16:28.323Z,1.42
2023-02-11T11:19:07.840Z,1.51
2023-02-11T11:21:47.370Z,1.49
2023-02-11T11:24:38.666Z,1.47
2023-02-11T11:27:06.528Z,1.58
2023-02-11T11:29:45.273Z,1.53
2023-02-11T11:32:20.775Z,1.59
2023-02-11T11:34:56.602Z,1.59
2023-02-11T11:37:28.188Z,1.60
2023-02-11T11:39:59.722Z,1.63
2023-02-11T11:42:35.015Z,1.70
2023-02-11T11:45:23.302Z,1.63
2023-02-11T11:48:04.323Z,1.69
2023-02-11T11:50:37.957Z,1.70
2023-02-11T11:53:11.263Z,1.68
2023-02-11T11:55:42.619Z,1.64
2023-02-11T11:58:23.777Z,1.69
2023-02-11T12:01:09.958Z,1.72
2023-02-11T12:04:05.777Z,1.72
2023-02-11T12:06:36.215Z,1.74
2023-02-11T12:09:08.904Z,1.68
2023-02-11T12:12:00.607Z,1.73
2023-02-11T12:14:35.326Z,1.72
2023-02-11T12:17:33.284Z,1.80
2023-02-11T12:20:23.878Z,1.75
2023-02-11T12:23:30.342Z,1.80
2023-02-11T12:26:16.071Z,1.81
2023-02-11T12:29:40.630Z,1.87
2023-02-11T12:32:14.293Z,1.88
2023-02-11T12:34:52.757Z,1.85
2023-02-11T12:37:58.157Z,1.98
2023-02-11T12:40:34.440Z,1.96
2023-02-11T12:43:24.259Z,2.01
2023-02-11T12:46:13.200Z,2.07
2023-02-11T12:49:02.209Z,2.07
2023-02-11T12:52:00.137Z,2.11
2023-02-11T12:54:30.938Z,2.11
2023-02-11T12:57:08.295Z,2.08
2023-02-11T12:59:46.315Z,2.15
2023-02-11T13:02:52.270Z,2.21
2023-02-11T13:05:30.805Z,2.26
2023-02-11T13:08:05.963Z,2.19
2023-02-11T13:10:38.984Z,2.31
2023-02-11T13:13:23.180Z,2.36
2023-02-11T13:16:10.320Z,2.35
2023-02-11T13:18:49.628Z,2.41
2023-02-11T13:21:29.960Z,2.37
2023-02-11T13:24:12.686Z,2.34
2023-02-11T13:26:51.369Z,2.44
2023-02-11T13:29:37.925Z,2.48
2023-02-11T13:32:13.798Z,2.52
2023-02-11T13:34:44.187Z,2.51
2023-02-11T13:37:29.207Z,2.53
2023-02-11T13:40:08.131Z,2.51
2023-02-11T13:42:50.511Z,2.50
2023-02-11T13:45:29.389Z,2.49
2023-02-11T13:47:59.180Z,2.51
2023-02-11T13:50:27.738Z,2.54
2023-02-11T13:53:03.566Z,2.56
2023-02-11T13:55:31.278Z,2.54
2023-02-11T13:58:08.055Z,2.57
2023-02-11T14:00:35.586Z,2.57
2023-02-11T14:03:42.277Z,2.56
2023-02-11T14:06:28.061Z,2.65
2023-02-11T14:09:14.674Z,2.62
2023-02-11T14:11:41.984Z,2.64
2023-02-11T14:14:25.747Z,2.66
2023-02-11T14:16:59.508Z,2.65
2023-02-11T14:19:38.631Z,2.68
2023-02-11T14:22:29.014Z,2.68
2023-02-11T14:24:59.120Z,2.70
2023-02-11T14:27:26.469Z,2.70
2023-02-11T14:30:15.914Z,2.68
2023-02-11T14:32:56.730Z,2.64
2023-02-11T14:35:39.628Z,2.71
2023-02-11T14:38:44.348Z,2.72
2023-02-11T14:41:29.959Z,2.75
2023-02-11T14:44:04.308Z,2.77
2023-02-11T14:46:35.440Z,2.75
2023-02-11T14:49:04.021Z,2.77
2023-02-11T14:51:36.333Z,2.79
2023-02-11T14:54:17.951Z,2.79
2023-02-11T14:56:46.960Z,2.84
2023-02-11T14:59:22.579Z,2.83
2023-02-11T15:01:52.478Z,2.82
2023-02-11T15:04:27.292Z,2.81
2023-02-11T15:06:56.502Z,2.84
2023-02-11T15:09:29.456Z,2.75
2023-02-11T15:11:56.907Z,2.82
2023-02-11T15:14:30.692Z,2.83
2023-02-11T15:17:06.840Z,2.83
2023-02-11T15:19:41.291Z,2.80
2023-02-11T15:22:18.623Z,2.81
2023-02-11T15:24:46.571Z,2.87
2023-02-11T15:27:16.428Z,2.90
2023-02-11T15:29:49.459Z,2.86
2023-02-11T15:32:17.959Z,2.95
2023-02-11T15:34:46.895Z,2.94
2023-02-11T15:37:29.876Z,2.94
2023-02-11T15:40:13.017Z,3.00
2023-02-11T15:42:52.451Z,3.00
2023-02-11T15:45:20.785Z,2.98
2023-02-11T15:47:54.341Z,3.04
2023-02-11T15:50:24.889Z,3.08
2023-02-11T15:52:52.924Z,3.04
2023-02-11T15:55:21.072Z,3.06
2023-02-11T15:57:58.808Z,3.07
2023-02-11T16:00:34.546Z,3.07
2023-02-11T16:03:02.184Z,3.15
2023-02-11T16:05:36.604Z,3.19
2023-02-11T16:08:29.557Z,3.22
2023-02-11T16:11:03.428Z,3.29
2023-02-11T16:13:34.673Z,3.38
2023-02-11T16:16:15.761Z,3.30
2023-02-11T16:19:04.638Z,3.46
2023-02-11T16:21:39.457Z,3.53
2023-02-11T16:24:08.349Z,3.47
2023-02-11T16:26:39.601Z,3.55
2023-02-11T16:29:11.260Z,3.60
2023-02-11T16:31:41.232Z,3.57
2023-02-11T16:34:14.711Z,3.63
2023-02-11T16:36:42.663Z,3.63
2023-02-11T16:39:10.803Z,3.56
2023-02-11T16:41:38.074Z,3.55
2023-02-11T16:44:06.046Z,3.54
2023-02-11T16:46:33.984Z,3.58
2023-02-11T16:49:12.365Z,3.59
2023-02-11T16:51:41.539Z,3.60
2023-02-11T16:54:15.126Z,3.59
2023-02-11T16:56:43.282Z,3.60
2023-02-11T16:59:11.996Z,3.66
2023-02-11T17:01:40.054Z,3.66
2023-02-11T17:04:11.977Z,3.67
2023-02-11T17:06:39.159Z,3.67
2023-02-11T17:09:08.254Z,3.72
2023-02-11T17:11:35.542Z,3.66
2023-02-11T17:14:03.187Z,3.71
2023-02-11T17:16:30.794Z,3.70
2023-02-11T17:18:58.534Z,3.74
2023-02-11T17:21:29.566Z,3.70
2023-02-11T17:23:58.634Z,3.76
2023-02-11T17:26:26.079Z,3.76
2023-02-11T17:28:53.867Z,3.76
2023-02-11T17:31:21.488Z,3.79
2023-02-11T17:33:49.245Z,3.76
2023-02-11T17:36:16.481Z,3.82
2023-02-11T17:38:44.206Z,3.83
2023-02-11T17:41:11.557Z,3.82
2023-02-11T17:43:42.984Z,3.76
2023-02-11T17:46:11.355Z,3.82
2023-02-11T17:48:38.958Z,3.79
2023-02-11T17:51:17.221Z,3.84
2023-02-11T17:53:44.764Z,3.76
2023-02-11T17:56:11.996Z,3.72
2023-02-11T17:58:39.692Z,3.77
2023-02-11T18:01:07.033Z,3.78
2023-02-11T18:03:34.600Z,3.79
2023-02-11T18:06:06.861Z,3.80
2023-02-11T18:08:35.483Z,3.83
2023-02-11T18:11:03.064Z,3.82
2023-02-11T18:13:30.838Z,3.86
2023-02-11T18:16:05.548Z,3.85
2023-02-11T18:18:33.285Z,3.93
2023-02-11T18:21:04.087Z,3.92
2023-02-11T18:23:31.720Z,3.90
2023-02-11T18:25:59.288Z,3.87
2023-02-11T18:28:27.012Z,3.94
2023-02-11T18:30:59.544Z,3.94
2023-02-11T18:33:27.594Z,3.97
2023-02-11T18:35:55.041Z,3.99
2023-02-11T18:38:23.064Z,3.99
2023-02-11T18:40:52.452Z,4.00
2023-02-11T18:43:20.671Z,3.99
2023-02-11T18:45:49.338Z,3.95
2023-02-11T18:48:18.334Z,4.00
2023-02-11T18:50:46.472Z,3.99
2023-02-11T18:53:15.822Z,3.97
2023-02-11T18:55:44.955Z,3.99
2023-02-11T18:58:13.368Z,3.96
2023-02-11T19:00:43.364Z,3.98
2023-02-11T19:03:11.354Z,3.96
2023-02-11T19:05:49.999Z,3.94
2023-02-11T19:08:17.935Z,3.93
2023-02-11T19:10:47.035Z,3.94
2023-02-11T19:13:15.312Z,3.94
2023-02-11T19:15:44.284Z,3.95
2023-02-11T19:18:13.073Z,3.93
2023-02-11T19:20:41.972Z,3.91
2023-02-11T19:23:10.567Z,3.95
2023-02-11T19:25:38.450Z,3.91
2023-02-11T19:28:06.262Z,3.90
2023-02-11T19:30:33.543Z,3.84
2023-02-11T19:33:01.199Z,3.92
2023-02-11T19:35:28.577Z,3.92
2023-02-11T19:37:56.255Z,3.93
2023-02-11T19:40:23.425Z,3.96
2023-02-11T19:42:51.028Z,3.95
2023-02-11T19:45:18.476Z,3.98
2023-02-11T19:47:46.286Z,3.98
2023-02-11T19:50:13.516Z,3.98
2023-02-11T19:52:41.318Z,3.95
2023-02-11T19:55:09.853Z,3.97
2023-02-11T19:57:37.617Z,3.95
2023-02-11T20:00:06.302Z,3.99
2023-02-11T20:02:40.470Z,3.96
2023-02-11T20:05:08.336Z,3.95
2023-02-11T20:07:35.936Z,3.93
2023-02-11T20:10:03.521Z,3.92
2023-02-11T20:12:31.354Z,4.01
2023-02-11T20:14:58.592Z,3.94
2023-02-11T20:17:26.323Z,3.94
2023-02-11T20:19:54.700Z,3.89
2023-02-11T20:22:22.960Z,3.93
2023-02-11T20:24:51.543Z,3.95
2023-02-11T20:27:20.685Z,3.91
2023-02-11T20:29:48.636Z,3.90
2023-02-11T20:32:16.860Z,3.88
2023-02-11T20:34:44.954Z,3.84
2023-02-11T20:37:12.838Z,3.76
2023-02-11T20:39:42.079Z,3.84
2023-02-11T20:42:12.049Z,3.77
2023-02-11T20:44:39.635Z,3.85
2023-02-11T20:47:08.075Z,3.81
2023-02-11T20:49:36.358Z,3.84
2023-02-11T20:52:09.483Z,3.83
2023-02-11T20:54:37.256Z,3.83
2023-02-11T20:57:05.933Z,3.79
2023-02-11T20:59:34.129Z,3.78
2023-02-11T21:02:02.374Z,3.83
2023-02-11T21:04:33.215Z,3.84
2023-02-11T21:07:04.643Z,3.78
2023-02-11T21:09:34.271Z,3.82
2023-02-11T21:12:03.305Z,3.72
2023-02-11T21:14:31.908Z,3.59
2023-02-11T21:17:00.615Z,3.55
2023-02-11T21:19:28.960Z,3.48
2023-02-11T21:22:00.753Z,3.41
2023-02-11T21:24:28.546Z,3.31
2023-02-11T21:26:56.271Z,3.31
2023-02-11T21:29:23.629Z,3.24
2023-02-11T21:31:51.745Z,3.22
2023-02-11T21:34:20.396Z,3.14
2023-02-11T21:36:48.092Z,3.14
2023-02-11T21:39:15.553Z,3.09
2023-02-11T21:41:43.243Z,3.04
2023-02-11T21:44:11.034Z,3.04
2023-02-11T21:46:39.033Z,3.04
2023-02-11T21:49:06.413Z,2.95
2023-02-11T21:51:34.055Z,3.01
2023-02-11T21:54:02.576Z,2.99
2023-02-11T21:56:32.119Z,2.98
2023-02-11T21:59:00.386Z,2.94
2023-02-11T22:01:32.833Z,2.84
2023-02-11T22:04:00.598Z,2.80
2023-02-11T22:06:31.291Z,2.78
2023-02-11T22:08:59.784Z,2.69
2023-02-11T22:11:27.709Z,2.66
2023-02-11T22:13:56.535Z,2.59
2023-02-11T22:16:24.523Z,2.54
2023-02-11T22:18:52.168Z,2.50
2023-02-11T22:21:22.720Z,2.46
2023-02-11T22:23:51.104Z,2.43
2023-02-11T22:26:21.424Z,2.38
2023-02-11T22:28:51.591Z,2.29
2023-02-11T22:31:31.474Z,2.23
2023-02-11T22:33:59.916Z,2.15
2023-02-11T22:36:33.315Z,2.05
2023-02-11T22:39:10.827Z,1.96
2023-02-11T22:41:40.826Z,1.93
2023-02-11T22:44:08.620Z,1.91
2023-02-11T22:46:36.389Z,1.77
2023-02-11T22:49:04.306Z,1.72
2023-02-11T22:51:32.379Z,1.64
2023-02-11T22:54:02.069Z,1.58
2023-02-11T22:56:31.607Z,1.48
2023-02-11T22:59:00.704Z,1.37
2023-02-11T23:01:29.718Z,1.29
2023-02-11T23:03:57.400Z,1.19
2023-02-11T23:06:25.149Z,1.20
2023-02-11T23:08:52.404Z,1.07
2023-02-11T23:11:26.483Z,1.09
2023-02-11T23:13:54.632Z,1.03
2023-02-11T23:16:24.544Z,1.03
2023-02-11T23:18:53.561Z,1.00
2023-02-11T23:21:25.783Z,0.99
2023-02-11T23:24:02.198Z,0.93
2023-02-11T23:26:31.038Z,0.88
2023-02-11T23:28:59.280Z,0.85
2023-02-11T23:31:34.228Z,0.87
2023-02-11T23:34:02.606Z,0.84
2023-02-11T23:36:31.334Z,0.80
2023-02-11T23:38:59.041Z,0.77
2023-02-11T23:41:27.473Z,0.61
2023-02-11T23:43:57.341Z,0.67
2023-02-11T23:46:28.740Z,0.67
2023-02-11T23:48:56.409Z,0.70
2023-02-11T23:51:24.755Z,0.65
2023-02-11T23:53:52.840Z,0.69
2023-02-11T23:56:26.554Z,0.72
2023-02-11T23:58:56.057Z,0.69
